Time;durP1;ratioP1;P1;durP2;ratioP2;P2;SDS_P1;SDS_P2;PMS_P1;PMS_P2;Temp;Humidity;BMP_temperature;BMP_pressure;BME280_temperature;BME280_humidity;BME280_pressure;Samples;Min_cycle;Max_cycle;Signal;HPM_P1;HPM_P2
2022/07/31 00:01:36;;;;;;;5.95;2.88;;;19.50;15.00;;;;;;5094942;28;20216;-80
2022/07/31 00:04:04;;;;;;;3.15;2.45;;;19.50;13.90;;;;;;5094634;28;20197;-80
2022/07/31 00:06:31;;;;;;;5.35;2.10;;;19.40;15.00;;;;;;5094361;28;20810;-79
2022/07/31 00:08:57;;;;;;;3.85;2.65;;;19.50;13.70;;;;;;5094884;28;20189;-80
2022/07/31 00:11:24;;;;;;;3.10;2.33;;;19.50;7.50;;;;;;5094923;28;20197;-79
2022/07/31 00:13:51;;;;;;;3.03;2.00;;;19.50;7.50;;;;;;5093913;28;20192;-79
2022/07/31 00:16:19;;;;;;;3.50;2.03;;;19.50;6.90;;;;;;5094257;28;20197;-79
2022/07/31 00:18:46;;;;;;;4.38;2.33;;;19.50;6.20;;;;;;5094125;28;20258;-78
2022/07/31 00:21:13;;;;;;;3.63;2.13;;;19.50;7.80;;;;;;5093757;28;20260;-78
2022/07/31 00:23:40;;;;;;;3.70;2.20;;;19.50;9.60;;;;;;5094527;28;20201;-79
2022/07/31 00:26:07;;;;;;;4.35;2.70;;;19.50;13.20;;;;;;5094205;28;20197;-79
2022/07/31 00:28:35;;;;;;;2.90;2.33;;;19.50;15.90;;;;;;5093653;28;20201;-79
2022/07/31 00:31:02;;;;;;;3.58;2.42;;;19.60;17.70;;;;;;5094279;28;20193;-78
2022/07/31 00:33:30;;;;;;;2.58;2.05;;;19.60;17.10;;;;;;5094352;28;20201;-79
2022/07/31 00:35:57;;;;;;;2.33;2.13;;;19.60;17.30;;;;;;5093711;28;20489;-78
2022/07/31 00:38:24;;;;;;;4.10;2.20;;;19.60;20.00;;;;;;5094249;28;20295;-78
2022/07/31 00:40:51;;;;;;;2.67;1.90;;;19.60;21.10;;;;;;5094098;28;20225;-78
2022/07/31 00:43:18;;;;;;;3.13;1.98;;;19.60;23.60;;;;;;5094041;28;20317;-78
2022/07/31 00:45:46;;;;;;;3.55;1.90;;;19.60;25.70;;;;;;5093876;28;20212;-79
2022/07/31 00:48:13;;;;;;;3.72;2.33;;;19.60;26.80;;;;;;5093040;28;20298;-78
2022/07/31 00:50:42;;;;;;;4.82;2.38;;;19.60;29.00;;;;;;5094288;28;20196;-78
2022/07/31 00:53:08;;;;;;;2.15;1.67;;;19.50;31.60;;;;;;5098566;28;20265;-78
2022/07/31 00:55:37;;;;;;;2.88;2.40;;;19.50;32.50;;;;;;5106245;28;20489;-79
2022/07/31 00:58:04;;;;;;;4.32;2.50;;;19.50;33.70;;;;;;5109055;28;20295;-78
2022/07/31 01:00:31;;;;;;;3.35;2.00;;;19.50;35.40;;;;;;5093588;28;20794;-79
2022/07/31 01:02:58;;;;;;;3.25;2.20;;;19.50;35.40;;;;;;5111442;28;20207;-78
2022/07/31 01:05:25;;;;;;;4.35;2.22;;;19.50;36.70;;;;;;5103248;28;20206;-79
2022/07/31 01:07:53;;;;;;;4.53;2.22;;;19.50;37.20;;;;;;5113862;28;20199;-78
2022/07/31 01:10:33;;;;;;;3.67;2.35;;;19.50;38.70;;;;;;5113330;28;20196;-78
2022/07/31 01:13:07;;;;;;;4.22;2.33;;;19.50;40.00;;;;;;5099394;28;20287;-80
2022/07/31 01:15:34;;;;;;;3.00;2.38;;;19.50;41.00;;;;;;5093639;28;20199;-79
2022/07/31 01:18:01;;;;;;;5.75;2.92;;;19.50;42.50;;;;;;5092654;28;20204;-79
2022/07/31 01:20:29;;;;;;;3.45;2.22;;;19.50;44.70;;;;;;5093434;28;20236;-79
2022/07/31 01:23:12;;;;;;;4.13;2.10;;;19.50;46.80;;;;;;5093934;28;20203;-79
2022/07/31 01:25:51;;;;;;;4.50;2.05;;;19.50;49.20;;;;;;5093958;28;20197;-79
2022/07/31 01:28:27;;;;;;;7.60;3.22;;;19.50;52.50;;;;;;5093997;28;20195;-80
2022/07/31 01:31:00;;;;;;;3.67;2.13;;;19.50;60.00;;;;;;5094336;28;20196;-79
2022/07/31 01:33:36;;;;;;;4.38;2.28;;;19.50;60.90;;;;;;5093898;28;20196;-77
2022/07/31 01:36:10;;;;;;;4.00;2.55;;;19.50;63.90;;;;;;5093833;28;20504;-80
2022/07/31 01:38:40;;;;;;;3.05;2.25;;;19.50;66.70;;;;;;5093691;28;20299;-79
2022/07/31 01:41:11;;;;;;;5.18;2.75;;;19.50;69.80;;;;;;5093945;28;20621;-79
2022/07/31 01:43:40;;;;;;;8.65;3.33;;;19.50;74.80;;;;;;5097036;28;20204;-79
2022/07/31 01:46:12;;;;;;;4.90;2.85;;;19.50;78.90;;;;;;5093649;28;20515;-79
2022/07/31 01:48:40;;;;;;;6.85;2.42;;;19.50;84.80;;;;;;5094002;28;20618;-79
2022/07/31 01:51:10;;;;;;;4.90;3.08;;;19.50;89.00;;;;;;5094994;28;20197;-79
2022/07/31 01:53:38;;;;;;;6.38;2.83;;;19.50;91.40;;;;;;5094449;28;20196;-79
2022/07/31 01:56:07;;;;;;;6.10;4.07;;;19.40;94.70;;;;;;5092813;28;20193;-79
2022/07/31 01:58:36;;;;;;;5.50;2.50;;;19.50;99.90;;;;;;5091885;28;20211;-77
2022/07/31 02:01:05;;;;;;;6.57;3.10;;;19.50;99.90;;;;;;5092561;28;20216;-79
2022/07/31 02:03:34;;;;;;;3.90;2.55;;;19.50;99.90;;;;;;5092688;28;20203;-79
2022/07/31 02:06:02;;;;;;;6.88;3.05;;;19.50;99.90;;;;;;5091544;28;21013;-79
2022/07/31 02:08:31;;;;;;;4.63;2.80;;;19.50;99.90;;;;;;5092011;28;20193;-78
2022/07/31 02:11:00;;;;;;;3.45;2.50;;;19.50;99.90;;;;;;5092455;28;20199;-79
2022/07/31 02:13:28;;;;;;;3.15;2.53;;;19.50;99.90;;;;;;5091849;28;20500;-79
2022/07/31 02:15:57;;;;;;;6.57;2.97;;;19.40;99.90;;;;;;5092360;28;20491;-79
2022/07/31 02:18:25;;;;;;;6.60;3.17;;;19.50;99.90;;;;;;5092469;28;20205;-79
2022/07/31 02:20:56;;;;;;;6.63;2.90;;;19.50;99.90;;;;;;5091790;28;20220;-79
2022/07/31 02:23:23;;;;;;;5.25;3.05;;;19.50;99.90;;;;;;5092334;28;20196;-78
2022/07/31 02:25:50;;;;;;;4.93;3.20;;;19.50;99.90;;;;;;5092419;28;20291;-80
2022/07/31 02:28:19;;;;;;;4.25;2.80;;;19.50;99.90;;;;;;5091033;28;20200;-80
2022/07/31 02:30:48;;;;;;;4.25;2.88;;;19.50;99.90;;;;;;5091845;28;20201;-79
2022/07/31 02:33:19;;;;;;;5.63;3.10;;;19.50;99.90;;;;;;5092342;28;20207;-79
2022/07/31 02:35:49;;;;;;;5.88;2.97;;;19.50;99.90;;;;;;5096512;28;20181;-79
2022/07/31 02:38:20;;;;;;;4.10;2.75;;;19.50;99.90;;;;;;5091725;28;20234;-78
2022/07/31 02:40:49;;;;;;;4.03;2.50;;;19.50;99.90;;;;;;5091916;28;20207;-80
2022/07/31 02:43:16;;;;;;;5.53;2.80;;;19.50;99.90;;;;;;5092532;28;20279;-80
2022/07/31 02:45:44;;;;;;;5.30;2.95;;;19.50;99.90;;;;;;5091646;28;20201;-78
2022/07/31 02:48:11;;;;;;;3.92;2.88;;;19.50;99.90;;;;;;5091124;28;20592;-79
2022/07/31 02:50:38;;;;;;;9.93;3.97;;;19.40;99.90;;;;;;5091352;28;20200;-79
2022/07/31 02:53:05;;;;;;;7.85;3.67;;;19.40;99.90;;;;;;5091360;28;20698;-79
2022/07/31 02:55:34;;;;;;;6.22;2.78;;;19.40;99.90;;;;;;5091157;28;21027;-79
2022/07/31 02:58:02;;;;;;;6.32;3.08;;;19.40;99.90;;;;;;5091330;28;20208;-79
2022/07/31 03:00:29;;;;;;;6.95;3.47;;;19.30;99.90;;;;;;5093411;28;20333;-79
2022/07/31 03:02:57;;;;;;;4.50;3.05;;;19.40;99.90;;;;;;5094998;28;20771;-79
2022/07/31 03:05:24;;;;;;;3.97;2.70;;;19.30;99.90;;;;;;5095798;28;20238;-79
2022/07/31 03:07:51;;;;;;;5.80;3.17;;;19.30;99.90;;;;;;5096143;28;20193;-80
2022/07/31 03:10:18;;;;;;;4.43;3.00;;;19.30;99.90;;;;;;5095378;28;20197;-78
2022/07/31 03:12:50;;;;;;;8.30;3.75;;;19.30;99.90;;;;;;5096037;28;20193;-79
2022/07/31 03:15:19;;;;;;;5.63;3.50;;;19.30;99.90;;;;;;5095939;28;20200;-79
2022/07/31 03:17:48;;;;;;;5.90;3.53;;;19.30;99.90;;;;;;5094891;28;20200;-80
2022/07/31 03:20:15;;;;;;;5.55;3.38;;;19.30;99.90;;;;;;5095161;28;20268;-79
2022/07/31 03:22:43;;;;;;;6.22;2.97;;;19.30;99.90;;;;;;5095242;28;20230;-80
2022/07/31 03:25:10;;;;;;;4.53;3.17;;;19.30;99.90;;;;;;5095358;28;20695;-78
2022/07/31 03:27:37;;;;;;;5.72;3.53;;;19.30;99.90;;;;;;5095754;28;20193;-80
2022/07/31 03:30:07;;;;;;;6.15;3.65;;;19.30;99.90;;;;;;5094406;28;20204;-79
2022/07/31 03:32:35;;;;;;;8.20;3.65;;;19.30;99.90;;;;;;5094457;28;20204;-80
2022/07/31 03:35:02;;;;;;;4.45;3.40;;;19.30;99.90;;;;;;5095216;28;20193;-79
2022/07/31 03:37:29;;;;;;;6.13;3.20;;;19.30;99.90;;;;;;5094503;28;20203;-79
2022/07/31 03:39:56;;;;;;;5.38;4.25;;;19.30;99.90;;;;;;5095685;28;20224;-81
2022/07/31 03:42:23;;;;;;;6.72;3.33;;;19.30;99.90;;;;;;5094711;28;20307;-80
2022/07/31 03:44:50;;;;;;;10.63;4.22;;;19.30;99.90;;;;;;5094499;28;20466;-79
2022/07/31 03:47:19;;;;;;;8.55;3.78;;;19.30;99.90;;;;;;5094547;28;20588;-79
2022/07/31 03:49:46;;;;;;;6.15;3.67;;;19.30;99.90;;;;;;5095422;28;20208;-79
2022/07/31 03:52:13;;;;;;;8.43;4.13;;;19.30;99.90;;;;;;5094357;28;20283;-80
2022/07/31 03:54:41;;;;;;;9.25;4.72;;;19.30;99.90;;;;;;5095424;28;20196;-78
2022/07/31 03:57:09;;;;;;;7.75;4.60;;;19.30;99.90;;;;;;5094757;28;20239;-79
2022/07/31 03:59:36;;;;;;;5.90;3.35;;;19.30;99.90;;;;;;5094047;28;20223;-79
2022/07/31 04:02:06;;;;;;;5.65;3.67;;;19.30;99.90;;;;;;5094485;28;20224;-79
2022/07/31 04:04:34;;;;;;;7.93;4.22;;;19.30;99.90;;;;;;5094960;28;20204;-79
2022/07/31 04:07:01;;;;;;;5.63;3.88;;;19.40;99.90;;;;;;5094272;28;20220;-80
2022/07/31 04:09:28;;;;;;;4.97;3.10;;;19.40;99.90;;;;;;5094905;28;20477;-80
2022/07/31 04:11:55;;;;;;;6.68;4.50;;;19.40;99.90;;;;;;5093763;28;20192;-79
2022/07/31 04:14:22;;;;;;;8.65;4.82;;;19.40;99.90;;;;;;5094335;28;20230;-79
2022/07/31 04:16:49;;;;;;;7.35;4.68;;;19.40;99.90;;;;;;5094737;28;20629;-79
2022/07/31 04:19:16;;;;;;;6.72;4.22;;;19.40;99.90;;;;;;5093835;28;20224;-79
2022/07/31 04:21:44;;;;;;;7.07;4.18;;;19.40;99.90;;;;;;5094896;28;20228;-79
2022/07/31 04:24:15;;;;;;;8.70;4.13;;;19.40;99.90;;;;;;5094405;28;20212;-78
2022/07/31 04:26:42;;;;;;;6.55;4.13;;;19.40;99.90;;;;;;5094053;28;20219;-79
2022/07/31 04:29:09;;;;;;;6.05;3.95;;;19.50;99.90;;;;;;5094050;28;20219;-78
2022/07/31 04:31:36;;;;;;;6.75;4.13;;;19.50;99.90;;;;;;5094586;28;20205;-79
2022/07/31 04:34:03;;;;;;;8.95;4.10;;;19.50;99.90;;;;;;5093443;28;20569;-79
2022/07/31 04:36:30;;;;;;;10.95;4.35;;;19.50;99.90;;;;;;5094025;28;20209;-80
2022/07/31 04:38:58;;;;;;;9.80;4.10;;;19.50;99.90;;;;;;5093759;28;20235;-80
2022/07/31 04:41:25;;;;;;;6.35;4.28;;;19.50;99.90;;;;;;5093076;28;20660;-79
2022/07/31 04:43:52;;;;;;;7.97;3.92;;;19.50;99.90;;;;;;5094202;28;20279;-79
2022/07/31 04:46:19;;;;;;;8.35;4.07;;;19.50;99.90;;;;;;5093888;28;20211;-79
2022/07/31 04:48:45;;;;;;;8.18;4.25;;;19.50;99.90;;;;;;5095238;28;20200;-79
2022/07/31 04:51:17;;;;;;;7.47;4.43;;;19.50;99.90;;;;;;5114706;28;20196;-79
2022/07/31 04:53:44;;;;;;;7.45;4.22;;;19.60;99.90;;;;;;5114377;28;20196;-80
2022/07/31 04:59:04;;;;;;;9.80;4.38;;;19.60;99.90;;;;;;5090996;28;20216;-80
2022/07/31 05:01:31;;;;;;;8.02;4.50;;;19.60;99.90;;;;;;5093229;28;20212;-80
2022/07/31 05:03:58;;;;;;;7.93;4.15;;;19.70;99.90;;;;;;5094667;28;20200;-79
2022/07/31 05:06:36;;;;;;;8.63;4.57;;;19.70;99.90;;;;;;5114260;28;20587;-79
2022/07/31 05:09:05;;;;;;;8.07;4.45;;;19.70;99.90;;;;;;5097729;28;20196;-79
2022/07/31 05:11:34;;;;;;;9.88;4.43;;;19.70;99.90;;;;;;5093237;28;20207;-79
2022/07/31 05:14:02;;;;;;;8.77;4.78;;;19.70;99.90;;;;;;5093995;28;20211;-79
2022/07/31 05:16:30;;;;;;;10.57;4.90;;;19.70;99.90;;;;;;5092787;28;20204;-81
2022/07/31 05:18:58;;;;;;;9.32;4.43;;;19.70;99.90;;;;;;5093279;28;20196;-79
2022/07/31 05:21:26;;;;;;;8.90;4.68;;;19.80;99.90;;;;;;5092948;28;20199;-79
2022/07/31 05:23:54;;;;;;;9.75;4.18;;;19.80;99.90;;;;;;5091734;28;20200;-80
2022/07/31 05:26:21;;;;;;;8.38;4.30;;;19.90;99.90;;;;;;5093216;28;20201;-79
2022/07/31 05:28:50;;;;;;;10.80;4.32;;;19.80;99.90;;;;;;5093254;28;20204;-79
2022/07/31 05:31:18;;;;;;;8.88;5.15;;;19.90;99.90;;;;;;5092794;28;20200;-79
2022/07/31 05:33:47;;;;;;;12.15;5.53;;;19.90;99.90;;;;;;5092820;28;20281;-79
2022/07/31 05:36:14;;;;;;;8.52;4.95;;;20.00;99.90;;;;;;5093449;28;20193;-80
2022/07/31 05:38:42;;;;;;;9.52;4.57;;;20.00;99.90;;;;;;5092974;28;20209;-81
2022/07/31 05:41:09;;;;;;;14.27;6.40;;;20.00;99.90;;;;;;5093056;28;20188;-81
2022/07/31 05:43:36;;;;;;;7.93;4.50;;;20.10;99.90;;;;;;5092027;28;20213;-80
2022/07/31 05:46:06;;;;;;;11.63;4.80;;;20.10;99.90;;;;;;5093048;28;20196;-80
2022/07/31 05:48:33;;;;;;;11.52;5.13;;;20.10;99.90;;;;;;5092888;28;20600;-80
2022/07/31 05:51:00;;;;;;;8.43;4.80;;;20.20;99.90;;;;;;5092580;28;20276;-79
2022/07/31 05:53:27;;;;;;;14.18;4.60;;;20.10;99.90;;;;;;5097578;28;20279;-80
2022/07/31 05:55:53;;;;;;;10.43;5.28;;;20.20;99.90;;;;;;5105833;28;20210;-81
2022/07/31 05:58:20;;;;;;;12.68;5.93;;;20.20;99.90;;;;;;5091973;28;20193;-80
2022/07/31 06:00:49;;;;;;;16.98;5.60;;;20.30;99.90;;;;;;5092809;28;20203;-81
2022/07/31 06:03:23;;;;;;;10.43;4.85;;;20.30;99.90;;;;;;5092544;28;20565;-81
2022/07/31 06:05:50;;;;;;;17.55;5.93;;;20.30;99.90;;;;;;5091793;28;20203;-82
2022/07/31 06:08:17;;;;;;;11.75;4.63;;;20.40;99.90;;;;;;5092575;28;20199;-80
2022/07/31 06:10:45;;;;;;;11.05;5.30;;;20.40;99.90;;;;;;5092449;28;20200;-80
2022/07/31 06:13:13;;;;;;;11.13;4.30;;;20.40;99.90;;;;;;5112014;28;20212;-81
2022/07/31 06:15:41;;;;;;;15.95;5.60;;;20.50;99.90;;;;;;5113004;28;20278;-82
2022/07/31 06:18:08;;;;;;;13.65;4.93;;;20.50;99.90;;;;;;5100053;28;20197;-81
2022/07/31 06:20:36;;;;;;;11.20;4.82;;;20.50;99.90;;;;;;5092034;28;20239;-81
2022/07/31 06:23:03;;;;;;;13.75;4.68;;;20.50;99.90;;;;;;5108923;28;20238;-80
2022/07/31 06:25:30;;;;;;;11.95;4.38;;;20.60;99.90;;;;;;5109771;28;20204;-80
2022/07/31 06:27:57;;;;;;;11.85;4.75;;;20.70;99.90;;;;;;5092219;28;20199;-83
2022/07/31 06:30:24;;;;;;;10.85;4.60;;;20.70;99.90;;;;;;5092191;28;20300;-80
2022/07/31 06:32:51;;;;;;;12.25;5.07;;;20.70;99.90;;;;;;5091696;28;20218;-81
2022/07/31 06:35:18;;;;;;;10.73;4.63;;;20.70;99.90;;;;;;5092648;28;20617;-80
2022/07/31 06:37:46;;;;;;;12.20;4.38;;;20.70;99.90;;;;;;5095764;28;20514;-80
2022/07/31 06:40:13;;;;;;;18.42;5.97;;;20.80;99.90;;;;;;5106091;28;20490;-80
2022/07/31 06:42:40;;;;;;;9.95;4.45;;;20.70;99.90;;;;;;5108574;28;20223;-81
2022/07/31 06:45:08;;;;;;;10.63;4.22;;;20.80;99.90;;;;;;5111594;28;20211;-79
2022/07/31 06:47:35;;;;;;;9.48;4.13;;;20.80;99.90;;;;;;5111321;28;20202;-80
2022/07/31 06:50:03;;;;;;;10.20;4.40;;;20.80;99.90;;;;;;5104040;28;20779;-81
2022/07/31 06:52:30;;;;;;;13.05;4.90;;;20.70;99.90;;;;;;5110808;28;20211;-81
2022/07/31 06:54:59;;;;;;;10.80;4.55;;;20.70;99.90;;;;;;5111023;28;20230;-80
2022/07/31 06:57:26;;;;;;;16.08;5.10;;;20.70;99.90;;;;;;5106022;28;20214;-80
2022/07/31 06:59:53;;;;;;;13.38;4.32;;;20.70;99.90;;;;;;5111409;28;20243;-79
2022/07/31 07:02:20;;;;;;;13.98;4.70;;;20.70;99.90;;;;;;5110744;28;20294;-80
2022/07/31 07:04:47;;;;;;;14.63;4.80;;;20.70;99.90;;;;;;5099856;28;20200;-80
2022/07/31 07:07:14;;;;;;;14.52;5.10;;;20.70;99.90;;;;;;5091202;28;20196;-80
2022/07/31 07:09:41;;;;;;;12.10;4.82;;;20.70;99.90;;;;;;5091080;28;20207;-80
2022/07/31 07:12:10;;;;;;;10.35;4.70;;;20.70;99.90;;;;;;5091604;28;20200;-80
2022/07/31 07:14:37;;;;;;;12.45;4.90;;;20.70;99.90;;;;;;5092123;28;20204;-80
2022/07/31 07:17:05;;;;;;;13.98;4.90;;;20.70;99.90;;;;;;5091429;28;20203;-80
2022/07/31 07:19:32;;;;;;;13.05;4.82;;;20.60;99.90;;;;;;5091592;28;20232;-79
2022/07/31 07:21:59;;;;;;;13.18;5.07;;;20.60;99.90;;;;;;5090760;28;20204;-81
2022/07/31 07:24:26;;;;;;;10.38;5.45;;;20.60;99.90;;;;;;5091248;28;20277;-79
2022/07/31 07:26:53;;;;;;;15.27;5.35;;;20.60;99.90;;;;;;5091979;28;20215;-80
2022/07/31 07:29:21;;;;;;;10.10;4.63;;;20.60;99.90;;;;;;5091420;28;20203;-79
2022/07/31 07:31:48;;;;;;;16.48;5.68;;;20.60;99.90;;;;;;5091995;28;20223;-79
2022/07/31 07:34:14;;;;;;;17.45;6.05;;;20.60;99.90;;;;;;5091622;28;20664;-79
2022/07/31 07:36:41;;;;;;;10.80;5.45;;;20.70;99.90;;;;;;5090975;28;20207;-79
2022/07/31 07:39:09;;;;;;;14.10;5.38;;;20.70;99.90;;;;;;5091670;28;20221;-79
2022/07/31 07:41:37;;;;;;;10.82;5.50;;;20.70;99.90;;;;;;5092155;28;20266;-79
2022/07/31 07:44:05;;;;;;;10.82;5.43;;;20.70;99.90;;;;;;5091321;28;20228;-79
2022/07/31 07:46:33;;;;;;;11.60;5.32;;;20.70;99.90;;;;;;5093256;28;20222;-80
2022/07/31 07:49:00;;;;;;;14.60;6.00;;;20.80;99.90;;;;;;5095496;28;20270;-78
2022/07/31 07:51:28;;;;;;;11.27;5.93;;;20.80;99.90;;;;;;5095102;28;20201;-79
2022/07/31 07:53:55;;;;;;;13.18;6.13;;;20.80;99.90;;;;;;5095610;28;20193;-78
2022/07/31 07:56:22;;;;;;;19.83;6.75;;;20.90;99.90;;;;;;5095503;28;20200;-80
2022/07/31 07:58:49;;;;;;;19.27;7.45;;;20.90;99.90;;;;;;5094559;28;20685;-78
2022/07/31 08:01:16;;;;;;;17.00;5.82;;;21.00;99.90;;;;;;5095266;28;20188;-78
2022/07/31 08:03:44;;;;;;;15.80;6.22;;;21.10;99.90;;;;;;5095224;28;20226;-78
2022/07/31 08:06:11;;;;;;;11.02;4.88;;;21.00;99.90;;;;;;5094693;28;20254;-78
2022/07/31 08:08:38;;;;;;;11.73;5.93;;;21.00;99.90;;;;;;5095376;28;20211;-78
2022/07/31 08:11:05;;;;;;;10.52;5.88;;;21.10;99.90;;;;;;5094608;28;20216;-79
2022/07/31 08:13:32;;;;;;;14.27;5.88;;;21.10;99.90;;;;;;5094772;28;20196;-80
2022/07/31 08:15:59;;;;;;;12.38;5.95;;;21.00;99.90;;;;;;5094724;28;20204;-78
2022/07/31 08:18:26;;;;;;;14.63;5.70;;;21.10;99.90;;;;;;5094099;28;20200;-78
2022/07/31 08:20:54;;;;;;;13.85;5.65;;;21.00;99.90;;;;;;5094807;28;20232;-78
2022/07/31 08:23:21;;;;;;;13.88;6.38;;;21.00;99.90;;;;;;5094791;28;20521;-79
2022/07/31 08:25:48;;;;;;;17.98;6.78;;;21.00;99.90;;;;;;5094320;28;20212;-78
2022/07/31 08:28:14;;;;;;;16.15;6.05;;;21.00;99.90;;;;;;5094326;28;20212;-79
2022/07/31 08:30:41;;;;;;;13.80;5.78;;;20.90;99.90;;;;;;5095226;28;20604;-80
2022/07/31 08:33:08;;;;;;;18.40;6.80;;;21.00;99.90;;;;;;5094517;28;20199;-79
2022/07/31 08:35:35;;;;;;;13.48;5.95;;;21.00;99.90;;;;;;5095072;28;20291;-80
2022/07/31 08:38:03;;;;;;;17.88;6.80;;;21.10;99.90;;;;;;5095133;28;20224;-79
2022/07/31 08:40:30;;;;;;;19.65;5.80;;;21.20;99.90;;;;;;5096668;28;20211;-78
2022/07/31 08:42:57;;;;;;;14.43;6.03;;;21.20;99.90;;;;;;5099412;28;20220;-78
2022/07/31 08:45:24;;;;;;;12.52;6.13;;;21.20;99.90;;;;;;5100151;28;20283;-79
2022/07/31 08:47:51;;;;;;;14.52;6.32;;;21.20;99.90;;;;;;5105592;22;20205;-78
2022/07/31 08:50:19;;;;;;;12.57;5.93;;;21.20;99.90;;;;;;5098342;28;20287;-81
2022/07/31 08:52:48;;;;;;;9.18;5.45;;;21.10;99.90;;;;;;5097399;28;20660;-81
2022/07/31 08:55:17;;;;;;;9.57;6.03;;;21.10;99.90;;;;;;5075455;28;20589;-79
2022/07/31 08:57:47;;;;;;;8.75;5.65;;;21.10;99.90;;;;;;5074437;28;20812;-81
2022/07/31 09:00:16;;;;;;;6.43;4.72;;;21.10;99.90;;;;;;5074525;28;20205;-82
2022/07/31 09:02:44;;;;;;;6.53;4.85;;;21.10;99.90;;;;;;5073374;28;20228;-81
2022/07/31 09:05:12;;;;;;;5.43;4.53;;;21.20;99.90;;;;;;5073914;28;20205;-81
2022/07/31 09:07:38;;;;;;;9.55;5.60;;;21.20;99.90;;;;;;5073693;28;20506;-81
2022/07/31 09:10:19;;;;;;;9.60;5.13;;;21.20;99.90;;;;;;5074016;28;20495;-81
2022/07/31 09:12:47;;;;;;;8.15;5.35;;;21.10;99.90;;;;;;5074163;28;20203;-81
2022/07/31 09:15:25;;;;;;;10.50;6.40;;;21.00;99.90;;;;;;5073373;28;20201;-79
2022/07/31 09:17:52;;;;;;;7.60;5.78;;;21.00;99.90;;;;;;5073488;28;20201;-80
2022/07/31 09:20:21;;;;;;;11.57;6.10;;;20.90;99.90;;;;;;5073034;28;20503;-81
2022/07/31 09:22:52;;;;;;;14.35;6.72;;;20.90;99.90;;;;;;5073138;28;20212;-80
2022/07/31 09:25:19;;;;;;;16.27;7.07;;;20.90;99.90;;;;;;5073527;28;20205;-81
2022/07/31 09:27:50;;;;;;;15.15;7.70;;;20.90;99.90;;;;;;5075474;28;20201;-81
2022/07/31 09:30:16;;;;;;;17.00;8.00;;;20.90;99.90;;;;;;5087844;28;20197;-80
2022/07/31 09:32:44;;;;;;;17.80;9.25;;;20.90;99.90;;;;;;5072247;28;20220;-82
2022/07/31 09:35:14;;;;;;;15.02;9.18;;;20.90;99.90;;;;;;5092007;28;20356;-78
2022/07/31 09:37:41;;;;;;;20.02;9.93;;;20.90;99.90;;;;;;5090899;28;20207;-81
2022/07/31 09:40:09;;;;;;;21.95;9.55;;;20.90;99.90;;;;;;5072028;28;20202;-83
2022/07/31 09:42:38;;;;;;;16.77;8.98;;;20.90;99.90;;;;;;5072813;28;20221;-80
2022/07/31 09:45:17;;;;;;;18.73;9.77;;;20.90;99.90;;;;;;5069721;28;20235;-81
2022/07/31 09:47:46;;;;;;;26.20;10.75;;;20.80;99.90;;;;;;5063419;28;20729;-80
2022/07/31 09:50:13;;;;;;;18.50;9.57;;;20.80;99.90;;;;;;5069672;28;20213;-80
2022/07/31 09:52:40;;;;;;;21.42;11.15;;;20.80;99.90;;;;;;5071065;28;20205;-80
2022/07/31 09:55:09;;;;;;;20.00;9.38;;;20.70;99.90;;;;;;5073020;28;20272;-81
2022/07/31 09:57:38;;;;;;;16.38;9.07;;;20.70;99.90;;;;;;5071870;28;20209;-83
2022/07/31 10:00:09;;;;;;;17.65;9.05;;;20.70;99.90;;;;;;5074058;28;20201;-83
2022/07/31 10:02:39;;;;;;;13.85;9.07;;;20.70;99.90;;;;;;5072423;28;20487;-81
2022/07/31 10:05:07;;;;;;;17.95;9.93;;;20.60;99.90;;;;;;5073650;28;20235;-86
2022/07/31 10:07:37;;;;;;;18.70;9.50;;;20.60;99.90;;;;;;5073059;28;20200;-83
2022/07/31 10:10:06;;;;;;;12.57;8.07;;;20.60;99.90;;;;;;5072349;28;20208;-83
2022/07/31 10:12:35;;;;;;;13.70;7.82;;;20.60;99.90;;;;;;5052809;28;20202;-80
2022/07/31 10:15:08;;;;;;;12.82;7.78;;;20.50;99.90;;;;;;5052221;28;20201;-82
2022/07/31 10:17:38;;;;;;;14.55;8.05;;;20.50;99.90;;;;;;5069609;28;20185;-81
2022/07/31 10:20:07;;;;;;;17.70;7.90;;;20.50;99.90;;;;;;5072650;28;20197;-83
2022/07/31 10:22:39;;;;;;;13.82;8.38;;;20.50;99.90;;;;;;5071243;28;20516;-80
2022/07/31 10:25:11;;;;;;;18.02;10.43;;;20.50;99.90;;;;;;5072328;28;20244;-81
2022/07/31 10:27:39;;;;;;;20.45;11.07;;;20.50;99.90;;;;;;5072595;28;20197;-83
2022/07/31 10:30:09;;;;;;;14.95;9.70;;;20.60;99.90;;;;;;5070254;28;20216;-82
2022/07/31 10:32:36;;;;;;;19.55;12.00;;;20.70;99.90;;;;;;5069067;28;20209;-82
2022/07/31 10:35:06;;;;;;;20.13;10.60;;;20.70;99.90;;;;;;5069913;28;20205;-82
2022/07/31 10:37:38;;;;;;;17.90;11.48;;;20.70;99.90;;;;;;5071929;28;20201;-82
2022/07/31 10:40:12;;;;;;;22.27;11.20;;;20.70;99.90;;;;;;5071668;28;20599;-80
2022/07/31 10:42:50;;;;;;;19.30;11.00;;;20.70;99.90;;;;;;5072752;28;20206;-83
2022/07/31 10:45:18;;;;;;;23.92;13.77;;;20.70;99.90;;;;;;5072462;28;20628;-80
2022/07/31 10:47:55;;;;;;;20.60;13.30;;;20.70;99.90;;;;;;5071705;28;20196;-82
2022/07/31 10:50:24;;;;;;;16.95;9.40;;;20.70;99.90;;;;;;5056852;28;20593;-83
2022/07/31 10:52:51;;;;;;;14.98;7.93;;;20.70;99.90;;;;;;5052090;28;20597;-81
2022/07/31 10:55:21;;;;;;;22.35;9.95;;;20.70;99.90;;;;;;5052549;28;20288;-80
2022/07/31 10:57:50;;;;;;;12.98;8.27;;;20.60;99.90;;;;;;5068511;22;20192;-82
2022/07/31 11:00:20;;;;;;;19.75;9.32;;;20.60;99.90;;;;;;5111703;28;20307;-84
2022/07/31 11:02:48;;;;;;;18.38;8.60;;;20.60;99.90;;;;;;5107651;28;20204;-81
2022/07/31 11:05:20;;;;;;;15.30;8.23;;;20.60;99.90;;;;;;5111851;28;20215;-81
2022/07/31 11:07:47;;;;;;;23.95;9.50;;;20.60;99.90;;;;;;5094558;28;20196;-81
2022/07/31 11:10:16;;;;;;;16.88;9.23;;;20.60;99.90;;;;;;5112378;28;20192;-81
2022/07/31 11:12:44;;;;;;;18.45;9.80;;;20.60;99.90;;;;;;5111477;28;20271;-80
2022/07/31 11:15:21;;;;;;;23.33;10.80;;;20.60;99.90;;;;;;5109231;28;20472;-79
2022/07/31 11:17:48;;;;;;;20.85;9.32;;;20.60;99.90;;;;;;5111886;28;20203;-81
2022/07/31 11:20:23;;;;;;;16.73;8.65;;;20.60;99.90;;;;;;5111361;28;20196;-81
2022/07/31 11:22:55;;;;;;;17.30;8.68;;;20.50;99.90;;;;;;5113164;28;20219;-81
2022/07/31 11:25:22;;;;;;;20.55;8.90;;;20.50;99.90;;;;;;5103653;27;20223;-81
2022/07/31 11:27:49;;;;;;;18.52;10.02;;;20.50;99.90;;;;;;5104068;28;20196;-81
2022/07/31 11:30:18;;;;;;;19.17;9.00;;;20.50;99.90;;;;;;5115404;28;20494;-81
2022/07/31 11:32:49;;;;;;;25.77;10.15;;;20.50;99.90;;;;;;5114210;28;20231;-80
2022/07/31 11:35:29;;;;;;;21.58;10.30;;;20.50;99.90;;;;;;5115434;28;20261;-82
2022/07/31 11:37:57;;;;;;;20.05;10.20;;;20.50;99.90;;;;;;5108209;28;20221;-79
2022/07/31 11:40:25;;;;;;;14.73;8.98;;;20.50;99.90;;;;;;5095086;28;20613;-82
2022/07/31 11:42:52;;;;;;;15.30;9.63;;;20.50;99.90;;;;;;5094821;28;20765;-79
2022/07/31 11:45:20;;;;;;;16.52;10.40;;;20.50;99.90;;;;;;5095264;28;20296;-80
2022/07/31 11:47:50;;;;;;;17.23;12.40;;;20.60;99.90;;;;;;5093958;28;20192;-79
2022/07/31 11:50:17;;;;;;;23.52;14.70;;;20.60;99.90;;;;;;5094698;28;20749;-81
2022/07/31 11:52:46;;;;;;;18.00;10.80;;;20.60;99.90;;;;;;5095902;28;20199;-81
2022/07/31 11:55:16;;;;;;;13.70;10.95;;;20.60;99.90;;;;;;5091949;28;20189;-80
2022/07/31 11:57:44;;;;;;;18.98;11.40;;;20.50;99.90;;;;;;5074178;28;20200;-81
2022/07/31 12:00:13;;;;;;;16.98;13.73;;;20.50;99.90;;;;;;5074788;28;20221;-80
2022/07/31 12:02:42;;;;;;;18.02;13.75;;;20.60;99.90;;;;;;5074594;28;20269;-81
2022/07/31 12:05:12;;;;;;;18.67;10.82;;;20.60;99.90;;;;;;5074255;28;20312;-80
2022/07/31 12:07:40;;;;;;;21.13;12.18;;;20.60;99.90;;;;;;5074557;28;20201;-80
2022/07/31 12:10:10;;;;;;;15.32;9.57;;;20.60;99.90;;;;;;5078550;28;20201;-78
2022/07/31 12:12:41;;;;;;;19.27;10.60;;;20.60;99.90;;;;;;5086257;28;20197;-80
2022/07/31 12:15:17;;;;;;;13.85;9.00;;;20.50;99.90;;;;;;5086415;28;20207;-81
2022/07/31 12:17:45;;;;;;;13.52;9.48;;;20.50;99.90;;;;;;5093881;28;20203;-81
2022/07/31 12:20:13;;;;;;;19.25;11.50;;;20.50;99.90;;;;;;5093571;28;20211;-82
2022/07/31 12:22:41;;;;;;;17.67;13.13;;;20.50;99.90;;;;;;5094374;28;20211;-84
2022/07/31 12:25:11;;;;;;;19.80;14.43;;;20.60;99.90;;;;;;5075399;28;20225;-80
2022/07/31 12:27:38;;;;;;;22.13;13.88;;;20.60;99.90;;;;;;5085961;28;20189;-81
2022/07/31 12:30:18;;;;;;;20.52;13.15;;;20.70;99.90;;;;;;5074486;28;20487;-81
2022/07/31 12:32:48;;;;;;;21.75;14.30;;;20.80;99.90;;;;;;5073331;28;20186;-80
2022/07/31 12:35:15;;;;;;;19.60;12.40;;;20.90;99.90;;;;;;5073081;28;20247;-80
2022/07/31 12:37:46;;;;;;;18.63;11.55;;;20.90;99.90;;;;;;5074704;28;20205;-81
2022/07/31 12:40:25;;;;;;;18.10;11.05;;;21.00;99.90;;;;;;5073466;28;20206;-82
2022/07/31 12:42:52;;;;;;;15.00;11.05;;;21.00;99.90;;;;;;5075209;28;20209;-81
2022/07/31 12:45:32;;;;;;;18.17;10.90;;;21.00;99.90;;;;;;5073674;28;20217;-81
2022/07/31 12:48:00;;;;;;;21.92;12.77;;;21.00;99.90;;;;;;5092302;28;20205;-79
2022/07/31 12:50:29;;;;;;;21.75;14.90;;;21.00;99.90;;;;;;5081092;28;20231;-80